createdAt,value
2022-12-08T00:01:25.798Z,3.10
2022-12-08T00:03:54.636Z,3.10
2022-12-08T00:06:51.692Z,3.10
2022-12-08T00:09:43.951Z,3.20
2022-12-08T00:12:15.405Z,3.10
2022-12-08T00:14:47.669Z,3.20
2022-12-08T00:17:16.798Z,3.10
2022-12-08T00:19:44.323Z,3.10
2022-12-08T00:22:12.497Z,3.20
2022-12-08T00:24:41.060Z,3.30
2022-12-08T00:27:10.283Z,3.20
2022-12-08T00:29:37.285Z,3.20
2022-12-08T00:32:05.189Z,3.20
2022-12-08T00:34:33.197Z,3.20
2022-12-08T00:37:00.316Z,3.30
2022-12-08T00:39:27.373Z,3.30
2022-12-08T00:42:12.617Z,3.30
2022-12-08T00:44:44.052Z,3.30
2022-12-08T00:47:12.457Z,3.30
2022-12-08T00:49:39.449Z,3.30
2022-12-08T00:52:06.717Z,3.30
2022-12-08T00:54:33.678Z,3.30
2022-12-08T00:57:00.680Z,3.20
2022-12-08T00:59:27.753Z,3.20
2022-12-08T01:01:54.817Z,3.10
2022-12-08T01:04:22.168Z,3.10
2022-12-08T01:06:49.380Z,3.00
2022-12-08T01:09:17.764Z,3.00
2022-12-08T01:11:45.448Z,3.00
2022-12-08T01:14:16.099Z,3.00
2022-12-08T01:16:43.916Z,3.00
2022-12-08T01:19:15.618Z,2.90
2022-12-08T01:21:44.325Z,3.00
2022-12-08T01:24:18.820Z,3.00
2022-12-08T01:26:46.437Z,3.00
2022-12-08T01:29:13.857Z,3.00
2022-12-08T01:31:41.021Z,3.00
2022-12-08T01:34:08.856Z,3.00
2022-12-08T01:36:39.481Z,3.00
2022-12-08T01:39:10.776Z,2.90
2022-12-08T01:41:38.871Z,2.90
2022-12-08T01:44:08.930Z,2.90
2022-12-08T01:46:39.317Z,2.90
2022-12-08T01:49:18.130Z,3.00
2022-12-08T01:52:05.295Z,3.00
2022-12-08T01:54:48.962Z,3.00
2022-12-08T01:57:32.617Z,2.90
2022-12-08T02:03:21.749Z,3.00
2022-12-08T02:05:49.234Z,3.00
2022-12-08T02:08:16.570Z,3.00
2022-12-08T02:10:43.868Z,3.00
2022-12-08T02:13:15.215Z,2.90
2022-12-08T02:16:05.629Z,2.90
2022-12-08T02:19:08.273Z,3.00
2022-12-08T02:22:00.978Z,3.00
2022-12-08T02:24:48.397Z,3.10
2022-12-08T02:27:25.284Z,3.10
2022-12-08T02:30:15.431Z,3.10
2022-12-08T02:33:06.919Z,3.10
2022-12-08T02:35:35.531Z,3.10
2022-12-08T02:38:21.035Z,3.10
2022-12-08T02:41:01.182Z,3.10
2022-12-08T02:43:40.641Z,3.10
2022-12-08T02:46:24.116Z,3.10
2022-12-08T02:48:54.823Z,3.20
2022-12-08T02:51:24.306Z,3.20
2022-12-08T02:53:51.245Z,3.30
2022-12-08T02:56:36.523Z,3.30
2022-12-08T02:59:58.993Z,3.30
2022-12-08T03:02:46.935Z,3.30
2022-12-08T03:05:36.705Z,3.30
2022-12-08T03:08:34.424Z,3.30
2022-12-08T03:11:11.251Z,3.30
2022-12-08T03:13:47.029Z,3.30
2022-12-08T03:16:17.379Z,3.30
2022-12-08T03:18:51.751Z,3.30
2022-12-08T03:21:18.711Z,3.30
2022-12-08T03:23:46.830Z,3.30
2022-12-08T03:26:18.532Z,3.30
2022-12-08T03:28:45.418Z,3.30
2022-12-08T03:31:13.454Z,3.30
2022-12-08T03:33:41.616Z,3.30
2022-12-08T03:36:08.781Z,3.40
2022-12-08T03:38:40.637Z,3.40
2022-12-08T03:41:19.660Z,3.40
2022-12-08T03:43:47.867Z,3.30
2022-12-08T03:46:18.537Z,3.20
2022-12-08T03:48:45.520Z,3.10
2022-12-08T03:51:12.946Z,3.00
2022-12-08T03:53:40.031Z,2.90
2022-12-08T03:56:30.019Z,2.90
2022-12-08T03:58:57.161Z,2.90
2022-12-08T04:01:24.682Z,2.90
2022-12-08T04:03:52.200Z,2.90
2022-12-08T04:06:20.551Z,2.90
2022-12-08T04:08:48.320Z,2.90
2022-12-08T04:11:15.341Z,2.90
2022-12-08T04:13:43.285Z,2.90
2022-12-08T04:16:21.043Z,2.90
2022-12-08T04:18:48.503Z,2.90
2022-12-08T04:21:15.683Z,2.90
2022-12-08T04:23:43.169Z,2.90
2022-12-08T04:26:10.357Z,3.00
2022-12-08T04:28:37.572Z,3.00
2022-12-08T04:31:05.211Z,3.00
2022-12-08T04:33:32.166Z,2.90
2022-12-08T04:35:59.052Z,3.00
2022-12-08T04:38:26.151Z,3.00
2022-12-08T04:40:53.203Z,3.00
2022-12-08T04:43:20.302Z,2.90
2022-12-08T04:45:48.104Z,2.90
2022-12-08T04:48:15.067Z,3.00
2022-12-08T04:55:00.895Z,3.00
2022-12-08T04:57:27.872Z,3.00
2022-12-08T04:59:54.839Z,3.00
2022-12-08T05:02:22.023Z,2.90
2022-12-08T05:04:49.031Z,2.90
2022-12-08T05:07:16.044Z,2.90
2022-12-08T05:09:43.059Z,2.90
2022-12-08T05:12:09.956Z,2.80
2022-12-08T05:14:36.888Z,2.80
2022-12-08T05:17:09.305Z,2.80
2022-12-08T05:19:36.652Z,2.80
2022-12-08T05:22:03.554Z,2.80
2022-12-08T05:24:30.696Z,2.80
2022-12-08T05:26:57.695Z,2.80
2022-12-08T05:29:24.654Z,2.80
2022-12-08T05:31:51.874Z,2.80
2022-12-08T05:34:18.818Z,2.80
2022-12-08T05:36:45.744Z,2.80
2022-12-08T05:39:13.478Z,2.80
2022-12-08T05:41:40.723Z,2.80
2022-12-08T05:44:07.920Z,2.80
2022-12-08T05:46:35.129Z,2.80
2022-12-08T05:49:02.270Z,2.80
2022-12-08T05:51:29.944Z,2.70
2022-12-08T05:53:57.460Z,2.80
2022-12-08T05:56:24.660Z,2.80
2022-12-08T05:58:52.478Z,2.80
2022-12-08T06:01:24.482Z,2.80
2022-12-08T06:03:52.309Z,2.80
2022-12-08T06:06:19.454Z,2.80
2022-12-08T06:08:46.775Z,2.80
2022-12-08T06:11:22.228Z,2.80
2022-12-08T06:13:49.679Z,2.90
2022-12-08T06:16:17.032Z,2.80
2022-12-08T06:18:44.301Z,2.90
2022-12-08T06:21:12.462Z,2.90
2022-12-08T06:23:39.421Z,2.90
2022-12-08T06:26:08.836Z,2.90
2022-12-08T06:28:57.419Z,2.90
2022-12-08T06:31:26.098Z,2.90
2022-12-08T06:33:54.112Z,2.90
2022-12-08T06:36:23.048Z,2.90
2022-12-08T06:38:50.024Z,2.90
2022-12-08T06:41:18.663Z,2.90
2022-12-08T06:43:45.837Z,2.90
2022-12-08T06:46:18.332Z,2.90
2022-12-08T06:48:45.422Z,2.90
2022-12-08T06:51:14.519Z,2.80
2022-12-08T06:53:41.967Z,2.90
2022-12-08T06:56:09.018Z,2.90
2022-12-08T06:58:36.038Z,2.80
2022-12-08T07:01:08.485Z,2.80
2022-12-08T07:03:36.147Z,2.80
2022-12-08T07:06:04.417Z,2.80
2022-12-08T07:08:32.566Z,2.80
2022-12-08T07:10:59.717Z,2.80
2022-12-08T07:13:26.615Z,2.80
2022-12-08T07:15:53.512Z,2.80
2022-12-08T07:18:20.582Z,2.90
2022-12-08T07:20:50.481Z,2.90
2022-12-08T07:23:17.917Z,2.90
2022-12-08T07:25:44.904Z,2.90
2022-12-08T07:28:11.923Z,2.80
2022-12-08T07:30:39.276Z,2.90
2022-12-08T07:33:06.746Z,2.90
2022-12-08T07:35:35.208Z,2.90
2022-12-08T07:38:02.681Z,2.80
2022-12-08T07:40:29.656Z,2.80
2022-12-08T07:42:56.584Z,2.90
2022-12-08T07:45:28.340Z,2.80
2022-12-08T07:47:58.256Z,2.90
2022-12-08T07:50:25.148Z,2.90
2022-12-08T07:52:52.046Z,2.90
2022-12-08T07:55:18.937Z,2.90
2022-12-08T07:57:45.821Z,2.90
2022-12-08T08:00:13.239Z,2.90
2022-12-08T08:02:40.334Z,2.90
2022-12-08T08:05:08.023Z,2.90
2022-12-08T08:07:35.359Z,2.90
2022-12-08T08:10:02.462Z,2.90
2022-12-08T08:12:31.795Z,2.90
2022-12-08T08:15:03.191Z,2.90
2022-12-08T08:17:30.297Z,2.90
2022-12-08T08:19:57.379Z,2.90
2022-12-08T08:22:25.322Z,2.90
2022-12-08T08:24:52.340Z,2.80
2022-12-08T08:27:19.295Z,2.90
2022-12-08T08:29:46.336Z,2.90
2022-12-08T08:32:13.320Z,2.90
2022-12-08T08:34:40.270Z,2.90
2022-12-08T08:37:07.204Z,3.00
2022-12-08T08:39:34.214Z,3.00
2022-12-08T08:42:01.106Z,2.90
2022-12-08T08:44:28.075Z,3.00
2022-12-08T08:46:55.127Z,3.00
2022-12-08T08:49:22.087Z,3.00
2022-12-08T08:51:49.083Z,3.00
2022-12-08T08:54:15.994Z,3.00
2022-12-08T08:56:42.889Z,3.00
2022-12-08T08:59:10.127Z,3.00
2022-12-08T09:01:37.228Z,3.00
2022-12-08T09:04:04.309Z,3.00
2022-12-08T09:06:31.394Z,3.00
2022-12-08T09:08:58.332Z,3.00
2022-12-08T09:11:28.140Z,3.00
2022-12-08T09:13:55.325Z,3.00
2022-12-08T09:16:22.534Z,3.00
2022-12-08T09:18:49.726Z,3.10
2022-12-08T09:21:22.897Z,3.10
2022-12-08T09:23:51.472Z,3.10
2022-12-08T09:26:18.454Z,3.00
2022-12-08T09:28:46.913Z,3.00
2022-12-08T09:31:14.357Z,3.00
2022-12-08T09:33:41.388Z,3.10
2022-12-08T09:36:08.870Z,3.10
2022-12-08T09:38:35.944Z,3.00
2022-12-08T09:41:04.625Z,3.10
2022-12-08T09:43:45.900Z,3.00
2022-12-08T09:46:15.085Z,3.00
2022-12-08T09:48:56.159Z,3.10
2022-12-08T09:51:28.064Z,3.10
2022-12-08T09:53:56.871Z,3.10
2022-12-08T09:56:25.972Z,3.10
2022-12-08T09:59:01.927Z,3.10
2022-12-08T10:01:32.624Z,3.10
2022-12-08T10:03:59.827Z,3.10
2022-12-08T10:06:41.488Z,3.10
2022-12-08T10:09:46.426Z,3.00
2022-12-08T10:12:20.724Z,3.10
2022-12-08T10:15:08.233Z,3.10
2022-12-08T10:17:44.973Z,3.10
2022-12-08T10:20:20.398Z,3.10
2022-12-08T10:22:49.762Z,3.20
2022-12-08T10:25:28.072Z,3.20
2022-12-08T10:27:55.204Z,3.20
2022-12-08T10:30:22.555Z,3.20
2022-12-08T10:32:51.914Z,3.20
2022-12-08T10:35:21.351Z,3.30
2022-12-08T10:37:58.025Z,3.30
2022-12-08T10:40:27.407Z,3.30
2022-12-08T10:42:58.329Z,3.40
2022-12-08T10:45:26.379Z,3.40
2022-12-08T10:48:03.549Z,3.40
2022-12-08T10:50:43.865Z,3.50
2022-12-08T10:53:16.119Z,3.50
2022-12-08T10:55:45.785Z,3.50
2022-12-08T10:58:45.768Z,3.50
2022-12-08T11:01:21.905Z,3.50
2022-12-08T11:03:54.747Z,3.50
2022-12-08T11:06:28.620Z,3.50
2022-12-08T11:08:57.481Z,3.50
2022-12-08T11:11:37.910Z,3.50
2022-12-08T11:14:08.700Z,3.60
2022-12-08T11:16:35.652Z,3.60
2022-12-08T11:19:06.737Z,3.60
2022-12-08T11:21:37.380Z,3.60
2022-12-08T11:24:17.978Z,3.50
2022-12-08T11:26:49.901Z,3.60
2022-12-08T11:29:17.789Z,3.60
2022-12-08T11:31:50.012Z,3.60
2022-12-08T11:34:23.879Z,3.60
2022-12-08T11:36:51.302Z,3.60
2022-12-08T11:39:18.198Z,3.60
2022-12-08T11:41:45.919Z,3.60
2022-12-08T11:44:35.994Z,3.60
2022-12-08T11:47:12.330Z,3.60
2022-12-08T11:49:42.024Z,3.60
2022-12-08T11:52:22.858Z,3.60
2022-12-08T11:55:16.779Z,3.70
2022-12-08T11:57:43.765Z,3.70
2022-12-08T12:00:13.607Z,3.60
2022-12-08T12:02:42.815Z,3.60
2022-12-08T12:05:39.899Z,3.70
2022-12-08T12:08:41.518Z,3.70
2022-12-08T12:11:36.966Z,3.60
2022-12-08T12:14:27.432Z,3.70
2022-12-08T12:17:01.890Z,3.60
2022-12-08T12:19:30.639Z,3.60
2022-12-08T12:21:57.574Z,3.70
2022-12-08T12:24:35.603Z,3.70
2022-12-08T12:27:21.798Z,3.70
2022-12-08T12:29:55.768Z,3.70
2022-12-08T12:32:23.221Z,3.60
2022-12-08T12:34:55.626Z,3.60
2022-12-08T12:37:23.837Z,3.50
2022-12-08T12:40:00.896Z,3.50
2022-12-08T12:42:45.503Z,3.50
2022-12-08T12:45:26.083Z,3.50
2022-12-08T12:47:56.917Z,3.50
2022-12-08T12:50:33.284Z,3.50
2022-12-08T12:53:13.595Z,3.50
2022-12-08T12:55:56.988Z,3.40
2022-12-08T12:58:29.996Z,3.50
2022-12-08T13:01:12.787Z,3.40
2022-12-08T13:03:50.092Z,3.50
2022-12-08T13:06:25.309Z,3.50
2022-12-08T13:08:53.693Z,3.60
2022-12-08T13:11:20.642Z,3.60
2022-12-08T13:14:05.731Z,3.60
2022-12-08T13:16:34.785Z,3.70
2022-12-08T13:19:04.481Z,3.70
2022-12-08T13:21:38.530Z,3.70
2022-12-08T13:24:14.545Z,3.70
2022-12-08T13:26:49.158Z,3.80
2022-12-08T13:29:25.499Z,3.80
2022-12-08T13:31:57.203Z,3.70
2022-12-08T13:34:37.749Z,3.70
2022-12-08T13:37:10.486Z,3.70
2022-12-08T13:39:40.436Z,3.70
2022-12-08T13:42:13.507Z,3.70
2022-12-08T13:47:41.406Z,3.60
2022-12-08T13:59:30.897Z,3.50
2022-12-08T14:02:02.103Z,3.40
2022-12-08T14:05:16.474Z,3.40
2022-12-08T14:07:16.650Z,3.40
2022-12-08T14:09:43.626Z,3.40
2022-12-08T14:12:18.233Z,3.40
2022-12-08T14:15:08.055Z,3.40
2022-12-08T14:17:35.027Z,3.30
2022-12-08T14:20:26.033Z,3.30
2022-12-08T14:22:53.518Z,3.30
2022-12-08T14:25:20.879Z,3.30
2022-12-08T14:27:48.296Z,3.30
2022-12-08T14:30:21.629Z,3.30
2022-12-08T14:32:50.642Z,3.30
2022-12-08T14:35:24.853Z,3.30
2022-12-08T14:37:56.831Z,3.30
2022-12-08T14:40:26.042Z,3.30
2022-12-08T14:43:08.030Z,3.30
2022-12-08T14:45:35.549Z,3.30
2022-12-08T14:48:42.809Z,3.30
2022-12-08T14:51:18.896Z,3.30
2022-12-08T14:53:56.269Z,3.20
2022-12-08T14:56:39.229Z,3.20
2022-12-08T14:59:31.743Z,3.20
2022-12-08T15:02:19.483Z,3.30
2022-12-08T15:04:48.124Z,3.30
2022-12-08T15:07:20.871Z,3.30
2022-12-08T15:09:50.558Z,3.20
2022-12-08T15:12:27.302Z,3.20
2022-12-08T15:14:57.433Z,3.20
2022-12-08T15:17:27.338Z,3.20
2022-12-08T15:19:58.421Z,3.30
2022-12-08T15:22:26.731Z,3.20
2022-12-08T15:24:53.887Z,3.20
2022-12-08T15:27:22.640Z,3.10
2022-12-08T15:29:49.868Z,3.20
2022-12-08T15:32:19.783Z,3.10
2022-12-08T15:34:46.785Z,3.20
2022-12-08T15:37:24.312Z,3.20
2022-12-08T15:39:51.751Z,3.20
2022-12-08T15:42:18.797Z,3.20
2022-12-08T15:44:45.715Z,3.10
2022-12-08T15:47:17.844Z,3.10
2022-12-08T15:49:45.332Z,3.10
2022-12-08T15:52:14.312Z,3.10
2022-12-08T15:54:41.241Z,3.10
2022-12-08T15:57:35.916Z,3.20
2022-12-08T16:00:51.030Z,3.20
2022-12-08T16:07:19.243Z,3.10
2022-12-08T16:09:11.970Z,3.20
2022-12-08T16:12:08.325Z,3.10
2022-12-08T16:17:24.191Z,3.20
2022-12-08T16:19:51.147Z,3.20
2022-12-08T16:25:19.390Z,3.10
2022-12-08T16:28:03.149Z,3.10
2022-12-08T16:30:33.116Z,3.00
2022-12-08T16:33:00.180Z,3.00
2022-12-08T16:35:27.215Z,2.90
2022-12-08T16:37:54.211Z,3.00
2022-12-08T16:40:21.244Z,2.90
2022-12-08T16:42:50.393Z,3.00
2022-12-08T16:45:22.775Z,3.00
2022-12-08T16:48:00.389Z,3.00
2022-12-08T16:50:32.273Z,3.00
2022-12-08T16:53:06.807Z,2.90
2022-12-08T16:55:34.267Z,2.90
2022-12-08T16:58:01.643Z,3.00
2022-12-08T17:00:29.704Z,3.00
2022-12-08T17:02:56.692Z,3.10
2022-12-08T17:05:25.380Z,3.10
2022-12-08T17:07:53.478Z,3.10
2022-12-08T17:10:25.257Z,2.90
2022-12-08T17:12:52.633Z,2.90
2022-12-08T17:15:24.564Z,2.70
2022-12-08T17:17:52.308Z,2.80
2022-12-08T17:20:26.164Z,2.80
2022-12-08T17:22:58.204Z,2.80
2022-12-08T17:25:26.819Z,2.80
2022-12-08T17:27:54.280Z,2.80
2022-12-08T17:30:24.005Z,2.80
2022-12-08T17:32:52.921Z,2.80
2022-12-08T17:35:20.198Z,2.80
2022-12-08T17:37:47.810Z,2.70
2022-12-08T17:40:14.768Z,2.50
2022-12-08T17:42:42.481Z,2.50
2022-12-08T17:45:10.073Z,2.50
2022-12-08T17:47:37.511Z,2.50
2022-12-08T17:50:06.630Z,2.50
2022-12-08T17:52:33.957Z,2.50
2022-12-08T17:55:01.195Z,2.40
2022-12-08T17:57:28.213Z,2.40
2022-12-08T17:59:55.344Z,2.50
2022-12-08T18:02:22.441Z,2.50
2022-12-08T18:04:49.492Z,2.50
2022-12-08T18:07:16.621Z,2.50
2022-12-08T18:09:43.603Z,2.50
2022-12-08T18:12:10.609Z,2.50
2022-12-08T18:14:37.613Z,2.60
2022-12-08T18:17:04.731Z,2.60
2022-12-08T18:19:31.934Z,2.60
2022-12-08T18:21:59.078Z,2.60
2022-12-08T18:24:26.110Z,2.60
2022-12-08T18:26:53.383Z,2.60
2022-12-08T18:29:22.780Z,2.60
2022-12-08T18:31:51.554Z,2.50
2022-12-08T18:34:21.811Z,2.50
2022-12-08T18:36:48.929Z,2.50
2022-12-08T18:39:26.123Z,2.60
2022-12-08T18:41:56.460Z,2.60
2022-12-08T18:44:23.620Z,2.60
2022-12-08T18:46:51.994Z,2.60
2022-12-08T18:49:20.770Z,2.50
2022-12-08T18:51:48.310Z,2.40
2022-12-08T18:54:22.022Z,2.50
2022-12-08T18:56:51.846Z,2.50
2022-12-08T18:59:20.607Z,2.60
2022-12-08T19:01:48.308Z,2.40
2022-12-08T19:04:34.681Z,2.20
2022-12-08T19:07:02.340Z,2.30
2022-12-08T19:09:29.600Z,2.40
2022-12-08T19:11:57.016Z,2.50
2022-12-08T19:14:28.219Z,2.50
2022-12-08T19:16:58.517Z,2.50
2022-12-08T19:19:27.193Z,2.60
2022-12-08T19:21:56.529Z,2.60
2022-12-08T19:24:24.534Z,2.60
2022-12-08T19:26:52.109Z,2.60
2022-12-08T19:29:19.147Z,2.70
2022-12-08T19:31:46.791Z,2.70
2022-12-08T19:34:14.518Z,2.70
2022-12-08T19:36:43.063Z,2.70
2022-12-08T19:39:41.456Z,2.70
2022-12-08T19:42:38.506Z,2.70
2022-12-08T19:45:18.548Z,2.70
2022-12-08T19:47:45.704Z,2.70
2022-12-08T19:50:32.984Z,2.80
2022-12-08T19:53:01.116Z,2.80
2022-12-08T19:55:28.897Z,2.80
2022-12-08T19:57:57.262Z,2.80
2022-12-08T20:00:24.870Z,2.80
2022-12-08T20:02:52.264Z,2.80
2022-12-08T20:05:24.676Z,2.80
2022-12-08T20:07:56.245Z,2.80
2022-12-08T20:10:28.328Z,2.80
2022-12-08T20:13:16.451Z,2.80
2022-12-08T20:15:44.836Z,2.80
2022-12-08T20:18:13.246Z,2.80
2022-12-08T20:20:41.451Z,2.90
2022-12-08T20:23:08.642Z,2.90
2022-12-08T20:25:39.962Z,2.90
2022-12-08T20:28:07.739Z,2.90
2022-12-08T20:30:37.852Z,2.90
2022-12-08T20:33:04.884Z,2.80
2022-12-08T20:35:32.140Z,2.90
2022-12-08T20:38:00.274Z,2.90
2022-12-08T20:40:27.362Z,2.90
2022-12-08T20:42:54.422Z,2.90
2022-12-08T20:45:22.124Z,2.90
2022-12-08T20:47:49.282Z,2.80
2022-12-08T20:50:16.688Z,2.80
2022-12-08T20:52:43.968Z,2.80
2022-12-08T20:55:12.049Z,2.90
2022-12-08T20:57:39.221Z,2.90
2022-12-08T21:00:10.830Z,2.90
2022-12-08T21:02:43.237Z,2.90
2022-12-08T21:05:12.380Z,2.90
2022-12-08T21:07:39.473Z,2.90
2022-12-08T21:10:08.116Z,2.90
2022-12-08T21:12:35.331Z,2.90
2022-12-08T21:15:07.383Z,2.90
2022-12-08T21:35:11.533Z,2.80
2022-12-08T21:42:34.317Z,2.90
2022-12-08T21:45:19.410Z,2.90
2022-12-08T22:03:16.337Z,2.90
2022-12-08T22:06:13.105Z,2.90
2022-12-08T22:09:13.487Z,3.00
2022-12-08T22:19:28.418Z,2.90
2022-12-08T22:21:55.512Z,3.00
2022-12-08T22:24:22.674Z,2.90
2022-12-08T22:26:49.918Z,3.00
2022-12-08T22:29:17.136Z,2.90
2022-12-08T22:31:44.302Z,2.90
2022-12-08T22:34:12.041Z,2.80
2022-12-08T22:36:42.666Z,2.80
2022-12-08T22:39:10.480Z,2.90
2022-12-08T22:41:39.951Z,2.90
2022-12-08T22:44:12.835Z,2.90
2022-12-08T22:46:39.991Z,2.80
2022-12-08T22:49:07.162Z,2.80
2022-12-08T22:51:38.727Z,2.90
2022-12-08T22:54:12.848Z,2.80
2022-12-08T22:56:43.970Z,2.80
2022-12-08T22:59:12.224Z,2.80
2022-12-08T23:01:39.255Z,2.90
2022-12-08T23:04:17.455Z,2.90
2022-12-08T23:06:48.972Z,2.90
2022-12-08T23:09:16.172Z,2.80
2022-12-08T23:11:45.464Z,2.70
2022-12-08T23:14:12.527Z,2.80
2022-12-08T23:16:39.827Z,2.80
2022-12-08T23:19:08.981Z,2.70
2022-12-08T23:21:42.235Z,2.80
2022-12-08T23:24:10.350Z,2.90
2022-12-08T23:26:37.696Z,2.80
2022-12-08T23:29:07.896Z,2.90
2022-12-08T23:31:38.477Z,2.90
2022-12-08T23:34:07.660Z,2.90
2022-12-08T23:36:34.852Z,2.90
2022-12-08T23:39:02.126Z,2.90
2022-12-08T23:41:31.344Z,2.90
2022-12-08T23:43:58.474Z,2.90
2022-12-08T23:46:25.676Z,2.90
2022-12-08T23:48:52.811Z,2.90
2022-12-08T23:51:22.946Z,2.90
2022-12-08T23:53:58.146Z,2.90
2022-12-08T23:56:30.034Z,2.90
2022-12-08T23:58:57.576Z,2.90
